Time;durP1;ratioP1;P1;durP2;ratioP2;P2;SDS_P1;SDS_P2;PMS_P1;PMS_P2;Temp;Humidity;BMP_temperature;BMP_pressure;BME280_temperature;BME280_humidity;BME280_pressure;Samples;Min_cycle;Max_cycle;Signal;HPM_P1;HPM_P2
2024/01/11 00:01:12;;;;;;;0.20;0.10;;;;;;;;;;4897503;29;20048;-83
2024/01/11 00:03:38;;;;;;;0.20;0.10;;;;;;;;;;4902585;29;20044;-83
2024/01/11 00:06:04;;;;;;;0.20;0.10;;;;;;;;;;4914390;29;20071;-82
2024/01/11 00:08:30;;;;;;;0.52;0.52;;;;;;;;;;4907791;29;20062;-82
2024/01/11 00:10:56;;;;;;;0.20;0.10;;;;;;;;;;4901429;29;20044;-83
2024/01/11 00:13:22;;;;;;;0.20;0.10;;;;;;;;;;4902740;29;20096;-83
2024/01/11 00:15:48;;;;;;;0.47;0.47;;;;;;;;;;4897548;29;20059;-84
2024/01/11 00:18:14;;;;;;;0.20;0.10;;;;;;;;;;4915161;29;20059;-83
2024/01/11 00:20:40;;;;;;;0.20;0.10;;;;;;;;;;4897448;29;20040;-82
2024/01/11 00:23:06;;;;;;;0.20;0.20;;;;;;;;;;4897029;29;20046;-82
2024/01/11 00:25:32;;;;;;;0.73;0.73;;;;;;;;;;4898214;29;20042;-83
2024/01/11 00:27:58;;;;;;;0.38;0.38;;;;;;;;;;4909706;29;20036;-83
2024/01/11 00:30:24;;;;;;;0.65;0.38;;;;;;;;;;4908445;29;20044;-83
2024/01/11 00:32:50;;;;;;;0.20;0.10;;;;;;;;;;4910290;29;20139;-82
2024/01/11 00:35:17;;;;;;;0.35;0.35;;;;;;;;;;4911789;29;20123;-83
2024/01/11 00:37:43;;;;;;;0.25;0.25;;;;;;;;;;4913159;29;20080;-83
2024/01/11 00:40:09;;;;;;;0.20;0.10;;;;;;;;;;4910325;29;20071;-83
2024/01/11 00:42:35;;;;;;;0.20;0.10;;;;;;;;;;4914043;29;20050;-83
2024/01/11 00:45:01;;;;;;;0.20;0.10;;;;;;;;;;4913752;29;20044;-83
2024/01/11 00:47:27;;;;;;;0.20;0.10;;;;;;;;;;4892049;29;20047;-82
2024/01/11 00:49:53;;;;;;;0.20;0.10;;;;;;;;;;4893797;29;20044;-83
2024/01/11 00:52:20;;;;;;;0.20;0.13;;;;;;;;;;4908409;29;20043;-84
2024/01/11 00:54:46;;;;;;;0.20;0.10;;;;;;;;;;4911241;29;20052;-83
2024/01/11 00:57:12;;;;;;;0.20;0.10;;;;;;;;;;4895667;29;20059;-84
2024/01/11 00:59:38;;;;;;;0.20;0.10;;;;;;;;;;4894502;29;20168;-83
2024/01/11 01:02:04;;;;;;;0.20;0.10;;;;;;;;;;4894702;29;20097;-83
2024/01/11 01:04:30;;;;;;;0.20;0.10;;;;;;;;;;4906856;29;20092;-83
2024/01/11 01:06:56;;;;;;;0.20;0.10;;;;;;;;;;4908140;29;20039;-83
2024/01/11 01:09:22;;;;;;;0.20;0.10;;;;;;;;;;4903637;29;20047;-83
2024/01/11 01:11:48;;;;;;;0.20;0.13;;;;;;;;;;4909427;29;20036;-83
2024/01/11 01:14:14;;;;;;;0.20;0.10;;;;;;;;;;4894131;29;20055;-84
2024/01/11 01:16:40;;;;;;;0.20;0.10;;;;;;;;;;4889337;29;20497;-83
2024/01/11 01:19:06;;;;;;;0.20;0.10;;;;;;;;;;4908132;29;20631;-82
2024/01/11 01:21:32;;;;;;;3.13;2.88;;;;;;;;;;4908322;29;20056;-83
2024/01/11 01:23:58;;;;;;;0.20;0.20;;;;;;;;;;4909375;29;20053;-83
2024/01/11 01:26:24;;;;;;;0.20;0.10;;;;;;;;;;4893626;29;20079;-84
2024/01/11 01:28:50;;;;;;;0.20;0.10;;;;;;;;;;4908605;29;20386;-83
2024/01/11 01:31:16;;;;;;;0.20;0.10;;;;;;;;;;4889148;29;20044;-83
2024/01/11 01:33:42;;;;;;;0.20;0.20;;;;;;;;;;4892521;29;20044;-83
2024/01/11 01:36:11;;;;;;;0.73;0.28;;;;;;;;;;4895500;29;20043;-83
2024/01/11 01:38:37;;;;;;;0.20;0.20;;;;;;;;;;4909290;29;20422;-83
2024/01/11 01:41:03;;;;;;;0.30;0.30;;;;;;;;;;4912966;29;20036;-82
2024/01/11 01:43:29;;;;;;;0.20;0.10;;;;;;;;;;4897413;29;20040;-81
2024/01/11 01:45:56;;;;;;;0.52;0.47;;;;;;;;;;4911335;29;20540;-83
2024/01/11 01:48:22;;;;;;;0.20;0.10;;;;;;;;;;4895240;29;20044;-81
2024/01/11 01:50:50;;;;;;;0.20;0.10;;;;;;;;;;4910435;29;20063;-83
2024/01/11 01:53:28;;;;;;;0.20;0.10;;;;;;;;;;4901624;29;20058;-84
2024/01/11 01:55:54;;;;;;;0.20;0.20;;;;;;;;;;4903559;29;20386;-82
2024/01/11 01:58:21;;;;;;;0.20;0.10;;;;;;;;;;4907052;29;20055;-82
2024/01/11 02:00:47;;;;;;;0.20;0.10;;;;;;;;;;4903053;29;20036;-83
2024/01/11 02:03:15;;;;;;;0.20;0.10;;;;;;;;;;4917165;29;20051;-82
2024/01/11 02:05:41;;;;;;;0.20;0.10;;;;;;;;;;4916204;29;20053;-83
2024/01/11 02:08:09;;;;;;;0.20;0.10;;;;;;;;;;4906354;29;20087;-83
2024/01/11 02:10:35;;;;;;;0.20;0.10;;;;;;;;;;4901096;29;20044;-82
2024/01/11 02:13:01;;;;;;;0.20;0.10;;;;;;;;;;4908450;29;20130;-84
2024/01/11 02:15:27;;;;;;;0.25;0.15;;;;;;;;;;4906323;29;20528;-83
2024/01/11 02:17:53;;;;;;;0.20;0.10;;;;;;;;;;4907012;29;20040;-83
2024/01/11 02:20:19;;;;;;;5.82;0.57;;;;;;;;;;4896040;29;20049;-83
2024/01/11 02:22:48;;;;;;;0.47;0.47;;;;;;;;;;4915309;29;20130;-83
2024/01/11 02:25:14;;;;;;;0.20;0.10;;;;;;;;;;4900390;29;20036;-83
2024/01/11 02:27:50;;;;;;;0.30;0.30;;;;;;;;;;4915760;29;20087;-83
2024/01/11 02:30:16;;;;;;;0.20;0.10;;;;;;;;;;4905012;29;20055;-82
2024/01/11 02:32:49;;;;;;;0.20;0.10;;;;;;;;;;4893968;29;20052;-84
2024/01/11 02:35:16;;;;;;;0.20;0.10;;;;;;;;;;4917006;29;20063;-84
2024/01/11 02:37:42;;;;;;;0.20;0.10;;;;;;;;;;4892172;29;20588;-84
2024/01/11 02:40:08;;;;;;;0.20;0.10;;;;;;;;;;4915048;29;20516;-83
2024/01/11 02:42:35;;;;;;;0.20;0.10;;;;;;;;;;4908750;29;20040;-84
2024/01/11 02:45:02;;;;;;;0.45;0.32;;;;;;;;;;4924371;29;20036;-82
2024/01/11 02:47:28;;;;;;;0.50;0.50;;;;;;;;;;4920796;29;20096;-83
2024/01/11 02:49:54;;;;;;;0.20;0.10;;;;;;;;;;4901929;29;20104;-84
2024/01/11 02:52:20;;;;;;;0.40;0.40;;;;;;;;;;4917206;29;20552;-84
2024/01/11 02:54:46;;;;;;;0.20;0.10;;;;;;;;;;4920137;29;20124;-83
2024/01/11 02:57:12;;;;;;;0.30;0.20;;;;;;;;;;4907475;29;20130;-82
2024/01/11 02:59:38;;;;;;;0.20;0.10;;;;;;;;;;4923756;29;20043;-83
2024/01/11 03:02:04;;;;;;;0.20;0.20;;;;;;;;;;4922315;29;20043;-84
2024/01/11 03:04:30;;;;;;;0.20;0.10;;;;;;;;;;4917323;29;20040;-82
2024/01/11 03:06:56;;;;;;;0.20;0.10;;;;;;;;;;4919642;29;20050;-83
2024/01/11 03:09:22;;;;;;;0.20;0.10;;;;;;;;;;4900688;29;20040;-83
2024/01/11 03:11:48;;;;;;;2.15;0.75;;;;;;;;;;4914654;29;20046;-83
2024/01/11 03:14:14;;;;;;;0.20;0.10;;;;;;;;;;4902386;29;20044;-84
2024/01/11 03:16:41;;;;;;;0.20;0.10;;;;;;;;;;4916440;29;20047;-83
2024/01/11 03:19:07;;;;;;;2.67;2.42;;;;;;;;;;4903729;29;20135;-83
2024/01/11 03:21:33;;;;;;;0.20;0.10;;;;;;;;;;4916040;29;20075;-83
2024/01/11 03:23:59;;;;;;;0.20;0.10;;;;;;;;;;4906982;29;20036;-82
2024/01/11 03:26:26;;;;;;;0.20;0.10;;;;;;;;;;4915747;29;20098;-83
2024/01/11 03:28:52;;;;;;;0.38;0.38;;;;;;;;;;4897724;29;20032;-83
2024/01/11 03:31:18;;;;;;;0.20;0.10;;;;;;;;;;4915051;29;20051;-84
2024/01/11 03:33:44;;;;;;;0.20;0.10;;;;;;;;;;4914073;29;20123;-83
2024/01/11 03:36:10;;;;;;;0.20;0.10;;;;;;;;;;4900269;29;20052;-83
2024/01/11 03:38:36;;;;;;;0.63;0.55;;;;;;;;;;4912671;29;20477;-84
2024/01/11 03:41:03;;;;;;;0.20;0.10;;;;;;;;;;4904828;29;20148;-83
2024/01/11 03:43:29;;;;;;;0.20;0.10;;;;;;;;;;4912396;29;20040;-84
2024/01/11 03:45:55;;;;;;;0.20;0.10;;;;;;;;;;4899171;29;20111;-83
2024/01/11 03:48:21;;;;;;;0.20;0.20;;;;;;;;;;4895952;29;20044;-83
2024/01/11 03:50:47;;;;;;;0.20;0.10;;;;;;;;;;4910452;29;20040;-83
2024/01/11 03:53:13;;;;;;;0.20;0.10;;;;;;;;;;4914950;29;20096;-83
2024/01/11 03:55:39;;;;;;;0.20;0.10;;;;;;;;;;4911085;29;20051;-83
2024/01/11 03:58:05;;;;;;;0.20;0.10;;;;;;;;;;4898854;29;20040;-82
2024/01/11 04:00:32;;;;;;;0.20;0.10;;;;;;;;;;4891554;29;20036;-83
2024/01/11 05:31:50;;;;;;;0.20;0.10;;;;;;;;;;4920355;29;20287;-89
2024/01/11 05:44:40;;;;;;;0.20;0.10;;;;;;;;;;4936671;23;20098;-84
2024/01/11 05:47:06;;;;;;;0.20;0.20;;;;;;;;;;4929359;29;20035;-84
2024/01/11 05:49:32;;;;;;;0.20;0.10;;;;;;;;;;4932263;29;20046;-84
2024/01/11 05:51:58;;;;;;;0.20;0.10;;;;;;;;;;4934296;28;20047;-84
2024/01/11 05:54:26;;;;;;;0.20;0.10;;;;;;;;;;4932280;29;20043;-85
2024/01/11 05:56:55;;;;;;;0.20;0.10;;;;;;;;;;4935934;28;20058;-84
2024/01/11 05:59:22;;;;;;;0.20;0.10;;;;;;;;;;4935938;29;20047;-85
2024/01/11 06:01:48;;;;;;;0.20;0.10;;;;;;;;;;4928987;28;20039;-85
2024/01/11 06:04:14;;;;;;;0.43;0.40;;;;;;;;;;4929379;29;20035;-84
2024/01/11 06:06:40;;;;;;;0.20;0.20;;;;;;;;;;4935210;29;20523;-85
2024/01/11 06:09:07;;;;;;;0.20;0.10;;;;;;;;;;4935903;28;20127;-85
2024/01/11 06:11:33;;;;;;;0.20;0.17;;;;;;;;;;4939609;28;20067;-85
2024/01/11 06:14:00;;;;;;;0.20;0.10;;;;;;;;;;4931737;28;20082;-85
2024/01/11 06:16:26;;;;;;;0.30;0.20;;;;;;;;;;4930483;29;20044;-85
2024/01/11 06:18:52;;;;;;;0.28;0.25;;;;;;;;;;4929631;28;20051;-85
2024/01/11 06:21:18;;;;;;;0.20;0.10;;;;;;;;;;4932142;29;20359;-85
2024/01/11 06:23:44;;;;;;;0.20;0.10;;;;;;;;;;4941951;29;20027;-84
2024/01/11 06:26:10;;;;;;;0.20;0.10;;;;;;;;;;4942226;29;20039;-85
2024/01/11 06:28:36;;;;;;;0.20;0.10;;;;;;;;;;4957951;28;20062;-85
2024/01/11 06:31:03;;;;;;;0.20;0.10;;;;;;;;;;4945609;28;20089;-84
2024/01/11 06:33:29;;;;;;;0.20;0.20;;;;;;;;;;4941886;29;20081;-84
2024/01/11 06:35:55;;;;;;;0.20;0.10;;;;;;;;;;4946540;28;20043;-84
2024/01/11 06:38:22;;;;;;;0.20;0.10;;;;;;;;;;4929202;29;20044;-85
2024/01/11 06:40:48;;;;;;;0.20;0.10;;;;;;;;;;4947710;28;20090;-85
2024/01/11 06:43:15;;;;;;;0.20;0.10;;;;;;;;;;4928302;29;20050;-85
2024/01/11 06:45:43;;;;;;;0.20;0.10;;;;;;;;;;4935078;29;20039;-85
2024/01/11 06:48:09;;;;;;;0.20;0.10;;;;;;;;;;4951197;28;20070;-85
2024/01/11 06:50:35;;;;;;;0.40;0.40;;;;;;;;;;4947300;28;20106;-85
2024/01/11 06:53:02;;;;;;;0.30;0.30;;;;;;;;;;4932238;28;20039;-85
2024/01/11 06:55:28;;;;;;;0.63;0.40;;;;;;;;;;4941671;28;20050;-87
2024/01/11 06:57:54;;;;;;;1.23;0.68;;;;;;;;;;4929228;28;20039;-86
2024/01/11 07:00:21;;;;;;;0.20;0.20;;;;;;;;;;4943711;28;20507;-85
2024/01/11 07:02:47;;;;;;;0.20;0.20;;;;;;;;;;4931886;29;20605;-85
2024/01/11 07:05:13;;;;;;;0.20;0.10;;;;;;;;;;4933894;29;20032;-84
2024/01/11 07:07:39;;;;;;;1.08;0.43;;;;;;;;;;4948302;28;20063;-85
2024/01/11 07:10:06;;;;;;;0.20;0.10;;;;;;;;;;4949894;28;20578;-86
2024/01/11 07:12:32;;;;;;;0.20;0.10;;;;;;;;;;4946128;28;20130;-84
2024/01/11 07:14:58;;;;;;;0.20;0.10;;;;;;;;;;4945119;28;20044;-85
2024/01/11 07:17:25;;;;;;;0.20;0.05;;;;;;;;;;4944594;28;20035;-85
2024/01/11 07:19:51;;;;;;;0.20;0.10;;;;;;;;;;4927703;28;20091;-84
2024/01/11 07:22:17;;;;;;;0.20;0.10;;;;;;;;;;4943785;28;20058;-85
2024/01/11 07:24:43;;;;;;;0.20;0.10;;;;;;;;;;4927161;29;20043;-86
2024/01/11 07:27:09;;;;;;;0.20;0.10;;;;;;;;;;4953155;28;20055;-85
2024/01/11 07:29:35;;;;;;;0.20;0.15;;;;;;;;;;4936199;29;20043;-85
2024/01/11 07:32:03;;;;;;;0.20;0.10;;;;;;;;;;4950932;28;20519;-86
2024/01/11 07:34:30;;;;;;;0.20;0.10;;;;;;;;;;4946635;28;20039;-85
2024/01/11 07:36:59;;;;;;;0.20;0.20;;;;;;;;;;4943685;28;20427;-86
2024/01/11 07:39:25;;;;;;;0.20;0.10;;;;;;;;;;4931398;29;20043;-86
2024/01/11 07:41:52;;;;;;;0.20;0.10;;;;;;;;;;4931217;29;20048;-85
2024/01/11 07:44:18;;;;;;;0.20;0.10;;;;;;;;;;4933606;29;20080;-84
2024/01/11 07:46:45;;;;;;;0.20;0.10;;;;;;;;;;4934049;29;20043;-85
2024/01/11 07:49:11;;;;;;;0.20;0.10;;;;;;;;;;4927940;29;20551;-85
2024/01/11 07:51:37;;;;;;;0.20;0.10;;;;;;;;;;4931550;29;20038;-85
2024/01/11 07:54:03;;;;;;;0.20;0.10;;;;;;;;;;4929831;28;20480;-85
2024/01/11 07:56:30;;;;;;;0.20;0.10;;;;;;;;;;4930905;29;20043;-85
2024/01/11 07:58:56;;;;;;;1.27;0.38;;;;;;;;;;4940836;28;20067;-85
2024/01/11 08:01:22;;;;;;;0.20;0.10;;;;;;;;;;4928741;29;20051;-85
2024/01/11 08:03:51;;;;;;;0.20;0.10;;;;;;;;;;4962814;28;20409;-86
2024/01/11 08:06:18;;;;;;;0.20;0.10;;;;;;;;;;4933536;28;20042;-85
2024/01/11 08:08:44;;;;;;;0.20;0.00;;;;;;;;;;4929643;29;20453;-85
2024/01/11 08:11:13;;;;;;;0.20;0.10;;;;;;;;;;4943986;28;20039;-85
2024/01/11 08:13:39;;;;;;;0.20;0.10;;;;;;;;;;4926834;29;20055;-85
2024/01/11 08:16:09;;;;;;;0.20;0.10;;;;;;;;;;4941821;28;20039;-87
2024/01/11 08:18:35;;;;;;;0.20;0.10;;;;;;;;;;4945975;28;20051;-86
2024/01/11 08:21:01;;;;;;;1.58;1.48;;;;;;;;;;4928306;28;20489;-86
2024/01/11 08:23:27;;;;;;;0.20;0.13;;;;;;;;;;4928886;29;20149;-85
2024/01/11 08:25:53;;;;;;;1.15;0.57;;;;;;;;;;4928520;29;20119;-85
2024/01/11 08:28:20;;;;;;;0.20;0.10;;;;;;;;;;4925868;28;20070;-85
2024/01/11 08:30:46;;;;;;;0.20;0.10;;;;;;;;;;4941117;28;20109;-85
2024/01/11 08:33:13;;;;;;;0.20;0.10;;;;;;;;;;4930927;28;20443;-85
2024/01/11 08:35:40;;;;;;;0.73;0.32;;;;;;;;;;4925715;29;20710;-86
2024/01/11 08:38:06;;;;;;;1.27;1.17;;;;;;;;;;4926700;28;20050;-85
2024/01/11 08:40:35;;;;;;;0.20;0.20;;;;;;;;;;4939798;28;20044;-85
2024/01/11 08:43:01;;;;;;;0.20;0.10;;;;;;;;;;4941186;28;20440;-85
2024/01/11 08:45:29;;;;;;;0.20;0.10;;;;;;;;;;4930273;29;20039;-85
2024/01/11 08:47:57;;;;;;;0.20;0.17;;;;;;;;;;4927463;29;20570;-85
2024/01/11 08:50:23;;;;;;;0.20;0.17;;;;;;;;;;4922894;29;20130;-88
2024/01/11 08:52:49;;;;;;;0.20;0.10;;;;;;;;;;4925249;29;20039;-85
2024/01/11 08:55:15;;;;;;;0.20;0.10;;;;;;;;;;4927703;29;20474;-85
2024/01/11 08:57:41;;;;;;;0.32;0.22;;;;;;;;;;4927112;29;20420;-86
2024/01/11 09:00:07;;;;;;;0.20;0.10;;;;;;;;;;4945264;28;20102;-86
2024/01/11 09:02:35;;;;;;;0.20;0.10;;;;;;;;;;4928846;29;20042;-86
2024/01/11 09:05:01;;;;;;;0.20;0.10;;;;;;;;;;4923179;28;20039;-86
2024/01/11 09:07:27;;;;;;;0.63;0.52;;;;;;;;;;4928726;29;20070;-87
2024/01/11 09:09:54;;;;;;;0.20;0.20;;;;;;;;;;4927079;29;20127;-85
2024/01/11 09:12:20;;;;;;;0.20;0.10;;;;;;;;;;4922151;28;20145;-85
2024/01/11 09:14:46;;;;;;;0.47;0.47;;;;;;;;;;4934739;29;20537;-85
2024/01/11 09:17:12;;;;;;;0.20;0.10;;;;;;;;;;4927204;28;20496;-86
2024/01/11 09:19:39;;;;;;;0.20;0.10;;;;;;;;;;4930945;29;20035;-85
2024/01/11 09:22:06;;;;;;;0.32;0.32;;;;;;;;;;4940375;28;20081;-85
2024/01/11 09:24:34;;;;;;;0.20;0.10;;;;;;;;;;4931422;29;20039;-85
2024/01/11 09:27:00;;;;;;;0.20;0.10;;;;;;;;;;4931246;29;20035;-85
2024/01/11 09:29:27;;;;;;;0.20;0.10;;;;;;;;;;4926787;28;20039;-85
2024/01/11 09:31:53;;;;;;;0.20;0.10;;;;;;;;;;4932696;29;20059;-86
2024/01/11 09:34:19;;;;;;;0.20;0.10;;;;;;;;;;4928503;28;20435;-85
2024/01/11 09:36:46;;;;;;;0.20;0.10;;;;;;;;;;4926556;29;20129;-86
2024/01/11 09:39:13;;;;;;;0.20;0.10;;;;;;;;;;4926393;28;20043;-86
2024/01/11 09:41:43;;;;;;;0.43;0.43;;;;;;;;;;4928403;29;20039;-87
2024/01/11 09:44:09;;;;;;;0.43;0.43;;;;;;;;;;4930173;28;20051;-86
2024/01/11 09:46:35;;;;;;;0.20;0.10;;;;;;;;;;4924881;29;20043;-87
2024/01/11 09:49:04;;;;;;;0.20;0.10;;;;;;;;;;4930334;29;20194;-85
2024/01/11 09:51:31;;;;;;;0.20;0.10;;;;;;;;;;4929879;29;20047;-86
2024/01/11 09:53:58;;;;;;;0.20;0.03;;;;;;;;;;4925907;29;20429;-86
2024/01/11 09:56:27;;;;;;;0.25;0.15;;;;;;;;;;4925241;29;20170;-86
2024/01/11 09:58:53;;;;;;;0.20;0.10;;;;;;;;;;4927001;28;20448;-87
2024/01/11 10:01:22;;;;;;;0.40;0.40;;;;;;;;;;4931272;28;20035;-87
2024/01/11 10:03:53;;;;;;;0.20;0.10;;;;;;;;;;4931706;29;20094;-88
2024/01/11 10:06:28;;;;;;;0.20;0.10;;;;;;;;;;4938718;29;20465;-88
2024/01/11 10:08:57;;;;;;;0.82;0.35;;;;;;;;;;4931199;29;20567;-87
2024/01/11 10:11:35;;;;;;;0.20;0.10;;;;;;;;;;4935530;29;20058;-88
2024/01/11 10:14:15;;;;;;;0.20;0.10;;;;;;;;;;4936155;29;20055;-88
2024/01/11 10:16:47;;;;;;;;;;;;;;;;;;4933390;29;20413;-88
2024/01/11 10:19:16;;;;;;;0.40;0.20;;;;;;;;;;4926362;28;20320;-88
2024/01/11 10:21:47;;;;;;;0.20;0.10;;;;;;;;;;4931149;29;20126;-89
2024/01/11 10:24:26;;;;;;;0.20;0.10;;;;;;;;;;4936722;28;20043;-88
2024/01/11 10:26:52;;;;;;;0.20;0.10;;;;;;;;;;4936679;29;20062;-88
2024/01/11 10:29:18;;;;;;;0.20;0.10;;;;;;;;;;4933535;28;20040;-89
2024/01/11 10:31:45;;;;;;;0.20;0.10;;;;;;;;;;4934826;29;20101;-89
2024/01/11 10:34:28;;;;;;;0.20;0.10;;;;;;;;;;4932962;28;20051;-88
2024/01/11 10:37:07;;;;;;;0.20;0.10;;;;;;;;;;4929999;29;20588;-89
2024/01/11 10:39:54;;;;;;;0.20;0.10;;;;;;;;;;4943859;28;20054;-89
2024/01/11 10:49:19;;;;;;;0.20;0.10;;;;;;;;;;4943825;28;20070;-89
2024/01/11 10:51:54;;;;;;;0.20;0.10;;;;;;;;;;4930882;29;20051;-89
2024/01/11 10:54:43;;;;;;;0.20;0.10;;;;;;;;;;4985401;23;20543;-90
2024/01/11 10:57:21;;;;;;;0.20;0.10;;;;;;;;;;4897659;29;20048;-89
2024/01/11 11:00:22;;;;;;;0.20;0.10;;;;;;;;;;4900202;29;20046;-90
2024/01/11 11:03:21;;;;;;;0.20;0.00;;;;;;;;;;4898460;29;20048;-89
2024/01/11 11:30:14;;;;;;;0.32;0.32;;;;;;;;;;4884768;29;20506;-84
2024/01/11 11:32:59;;;;;;;;;;;;;;;;;;;;;
2024/01/11 11:39:27;;;;;;;0.20;0.10;;;;;;;;;;4893570;29;20035;-85
2024/01/11 11:41:58;;;;;;;0.20;0.20;;;;;;;;;;4910592;29;20043;-84
2024/01/11 11:45:09;;;;;;;;;;;;;;;;;;;;;
2024/01/11 11:48:28;;;;;;;0.20;0.10;;;;;;;;;;4904779;29;20055;-85
2024/01/11 11:51:25;;;;;;;0.20;0.10;;;;;;;;;;4853286;29;20056;-84
2024/01/11 12:11:18;;;;;;;;;;;;;;;;;;;;;
2024/01/11 12:20:42;;;;;;;0.20;0.10;;;;;;;;;;4933067;23;20044;-85
2024/01/11 12:46:12;;;;;;;;;;;;;;;;;;;;;
2024/01/11 12:52:30;;;;;;;0.20;0.10;;;;;;;;;;4840626;29;20080;-88
2024/01/11 12:55:04;;;;;;;0.20;0.10;;;;;;;;;;4863524;28;20085;-86
2024/01/11 12:57:55;;;;;;;0.20;0.00;;;;;;;;;;4934048;28;20039;-87
2024/01/11 13:00:49;;;;;;;0.20;0.10;;;;;;;;;;4938952;28;20095;-89
2024/01/11 13:03:15;;;;;;;0.20;0.10;;;;;;;;;;4919025;29;20158;-87
2024/01/11 13:05:48;;;;;;;0.20;0.10;;;;;;;;;;4928641;28;20412;-86
2024/01/11 13:08:20;;;;;;;;;;;;;;;;;;4926982;29;20522;-88
2024/01/11 13:11:13;;;;;;;0.20;0.10;;;;;;;;;;4928281;28;20402;-88
2024/01/11 13:21:09;;;;;;;0.20;0.10;;;;;;;;;;4942410;28;20051;-88
2024/01/11 13:28:00;;;;;;;;;;;;;;;;;;;;;
2024/01/11 13:47:57;;;;;;;0.20;0.10;;;;;;;;;;4722182;30;20302;-88
2024/01/11 13:56:27;;;;;;;0.20;0.10;;;;;;;;;;4962719;28;20115;-88
2024/01/11 14:23:17;;;;;;;0.20;0.10;;;;;;;;;;4880678;29;20087;-89
2024/01/11 14:25:48;;;;;;;0.20;0.10;;;;;;;;;;4971417;23;20142;-86
2024/01/11 14:28:42;;;;;;;0.20;0.10;;;;;;;;;;4856619;29;20057;-84
2024/01/11 14:32:01;;;;;;;;;;;;;;;;;;;;;
2024/01/11 14:35:04;;;;;;;0.20;0.10;;;;;;;;;;4853479;29;20045;-86
2024/01/11 14:41:12;;;;;;;0.20;0.10;;;;;;;;;;4781670;29;20512;-86
2024/01/11 14:47:17;;;;;;;0.33;0.30;;;;;;;;;;4814517;29;20078;-87
2024/01/11 14:50:05;;;;;;;0.20;0.20;;;;;;;;;;4823566;29;20061;-86
2024/01/11 14:53:14;;;;;;;0.20;0.10;;;;;;;;;;4834307;29;20450;-86
2024/01/11 15:04:53;;;;;;;0.20;0.10;;;;;;;;;;4861348;29;20166;-83
2024/01/11 17:16:29;;;;;;;0.20;0.10;;;;;;;;;;4917954;29;20047;-85
2024/01/11 17:45:58;;;;;;;;;;;;;;;;;;;;;
2024/01/11 17:49:16;;;;;;;0.20;0.10;;;;;;;;;;4905884;29;20071;-88
2024/01/11 17:52:08;;;;;;;0.63;0.45;;;;;;;;;;4898260;29;20052;-88
2024/01/11 17:55:03;;;;;;;;;;;;;;;;;;;;;
2024/01/11 17:57:51;;;;;;;1.00;0.43;;;;;;;;;;4890304;29;20047;-88
2024/01/11 18:00:31;;;;;;;;;;;;;;;;;;;;;
2024/01/11 18:03:48;;;;;;;1.77;0.60;;;;;;;;;;4892137;29;20056;-87
2024/01/11 18:06:18;;;;;;;0.30;0.22;;;;;;;;;;4920490;23;20090;-88
2024/01/11 18:09:14;;;;;;;;;;;;;;;;;;;;;
2024/01/11 18:15:13;;;;;;;0.20;0.10;;;;;;;;;;4908241;29;20044;-88
2024/01/11 18:21:42;;;;;;;;;;;;;;;;;;;;;
2024/01/11 18:24:28;;;;;;;0.30;0.30;;;;;;;;;;4903991;29;20044;-87
2024/01/11 18:27:10;;;;;;;0.20;0.10;;;;;;;;;;4892089;29;20048;-87
2024/01/11 18:30:10;;;;;;;0.20;0.10;;;;;;;;;;4908110;29;20040;-87
2024/01/11 18:32:53;;;;;;;0.20;0.10;;;;;;;;;;4905138;29;20051;-87
2024/01/11 18:36:01;;;;;;;0.20;0.10;;;;;;;;;;4911069;29;20083;-87
2024/01/11 18:39:35;;;;;;;0.20;0.10;;;;;;;;;;4869987;29;20053;-86
2024/01/11 18:42:04;;;;;;;0.32;0.17;;;;;;;;;;4892756;29;20478;-87
2024/01/11 18:44:35;;;;;;;0.20;0.10;;;;;;;;;;4889319;29;20056;-87
2024/01/11 18:47:11;;;;;;;0.20;0.10;;;;;;;;;;4887810;29;20051;-87
2024/01/11 18:49:43;;;;;;;0.20;0.10;;;;;;;;;;4891477;29;20055;-87
2024/01/11 18:52:41;;;;;;;0.20;0.10;;;;;;;;;;4891849;29;20606;-87
2024/01/11 18:55:17;;;;;;;0.20;0.10;;;;;;;;;;4892613;29;20584;-87
2024/01/11 18:58:03;;;;;;;0.60;0.30;;;;;;;;;;4896080;29;20091;-87
2024/01/11 19:00:45;;;;;;;0.20;0.20;;;;;;;;;;4907249;29;20309;-87
2024/01/11 19:03:38;;;;;;;0.20;0.10;;;;;;;;;;4887566;29;20052;-86
2024/01/11 19:06:32;;;;;;;;;;;;;;;;;;;;;
2024/01/11 19:09:17;;;;;;;0.20;0.10;;;;;;;;;;4905941;29;20497;-87
2024/01/11 19:12:24;;;;;;;0.20;0.10;;;;;;;;;;4897615;29;20660;-87
2024/01/11 19:15:26;;;;;;;0.40;0.40;;;;;;;;;;4891932;29;20058;-88
2024/01/11 19:18:08;;;;;;;0.45;0.30;;;;;;;;;;4897451;29;20071;-87
2024/01/11 19:27:21;;;;;;;0.20;0.20;;;;;;;;;;4901107;29;20048;-86
2024/01/11 19:30:13;;;;;;;;;;;;;;;;;;;;;
2024/01/11 19:32:53;;;;;;;0.60;0.60;;;;;;;;;;4930444;29;20062;-87
2024/01/11 19:39:05;;;;;;;0.20;0.10;;;;;;;;;;4954719;28;20515;-86
2024/01/11 19:47:36;;;;;;;0.20;0.10;;;;;;;;;;4972403;23;20110;-87
2024/01/11 19:50:23;;;;;;;0.20;0.10;;;;;;;;;;4944733;28;20055;-86
2024/01/11 19:52:52;;;;;;;;;;;;;;;;;;4926728;29;20071;-86
2024/01/11 19:55:34;;;;;;;0.20;0.10;;;;;;;;;;4943256;28;20415;-86
2024/01/11 19:58:37;;;;;;;0.20;0.10;;;;;;;;;;4981085;23;20057;-84
2024/01/11 20:08:12;;;;;;;0.20;0.10;;;;;;;;;;4903994;29;20047;-84
2024/01/11 20:14:32;;;;;;;;;;;;;;;;;;;;;
2024/01/11 20:32:03;;;;;;;0.20;0.10;;;;;;;;;;4737464;30;20043;-84
2024/01/11 20:54:36;;;;;;;0.28;0.28;;;;;;;;;;4900909;29;20139;-84
2024/01/11 21:03:55;;;;;;;0.20;0.10;;;;;;;;;;4047361;26;20060;-86
2024/01/11 21:06:42;;;;;;;0.20;0.10;;;;;;;;;;4893705;29;20055;-87
2024/01/11 21:09:14;;;;;;;0.20;0.15;;;;;;;;;;4909653;29;20047;-86
2024/01/11 21:12:01;;;;;;;0.20;0.10;;;;;;;;;;4906733;29;20048;-87
2024/01/11 21:14:51;;;;;;;1.75;0.60;;;;;;;;;;4879205;29;20627;-87
2024/01/11 21:17:34;;;;;;;0.20;0.20;;;;;;;;;;4893829;29;20046;-86
2024/01/11 21:20:09;;;;;;;0.20;0.10;;;;;;;;;;4878371;29;20080;-85
2024/01/11 21:22:54;;;;;;;0.20;0.10;;;;;;;;;;4881358;29;20506;-86
2024/01/11 21:25:25;;;;;;;0.20;0.20;;;;;;;;;;4893255;29;20553;-86
2024/01/11 21:27:55;;;;;;;0.20;0.10;;;;;;;;;;4892072;29;20114;-87
2024/01/11 21:30:32;;;;;;;0.20;0.10;;;;;;;;;;4878304;29;20505;-84
2024/01/11 21:33:01;;;;;;;0.28;0.20;;;;;;;;;;4892661;29;20040;-87
2024/01/11 21:35:36;;;;;;;0.55;0.40;;;;;;;;;;4874792;29;20040;-86
2024/01/11 21:38:22;;;;;;;0.45;0.45;;;;;;;;;;4897550;29;20052;-87
2024/01/11 21:40:59;;;;;;;0.20;0.10;;;;;;;;;;4879291;29;20055;-86
2024/01/11 21:43:34;;;;;;;0.20;0.10;;;;;;;;;;4879393;29;20044;-86
2024/01/11 21:46:07;;;;;;;0.20;0.10;;;;;;;;;;4879183;29;20704;-86
2024/01/11 21:48:33;;;;;;;;;;;;;;;;;;4907235;29;20048;-88
2024/01/11 21:54:18;;;;;;;0.20;0.10;;;;;;;;;;4905513;29;20040;-86
2024/01/11 21:56:54;;;;;;;0.20;0.10;;;;;;;;;;4888468;29;20052;-86
2024/01/11 21:59:31;;;;;;;0.20;0.13;;;;;;;;;;4894947;29;20136;-86
2024/01/11 22:02:15;;;;;;;0.30;0.30;;;;;;;;;;4896807;29;20079;-90
2024/01/11 22:04:50;;;;;;;0.20;0.10;;;;;;;;;;4893644;29;20036;-88
2024/01/11 22:07:31;;;;;;;0.20;0.10;;;;;;;;;;4898857;29;20044;-86
2024/01/11 22:10:05;;;;;;;0.52;0.38;;;;;;;;;;4899837;29;20036;-87
2024/01/11 22:12:43;;;;;;;0.20;0.10;;;;;;;;;;4893672;29;20055;-87
2024/01/11 22:15:12;;;;;;;0.20;0.10;;;;;;;;;;4894994;29;20071;-84
2024/01/11 22:17:45;;;;;;;0.68;0.55;;;;;;;;;;4880907;29;20071;-87
2024/01/11 22:20:27;;;;;;;0.30;0.30;;;;;;;;;;4879952;29;20048;-88
2024/01/11 22:23:23;;;;;;;0.20;0.13;;;;;;;;;;4895743;29;20048;-85
2024/01/11 22:25:58;;;;;;;0.30;0.30;;;;;;;;;;4895208;29;20039;-84
2024/01/11 22:28:24;;;;;;;0.20;0.10;;;;;;;;;;4895649;29;20067;-85
2024/01/11 22:30:55;;;;;;;0.20;0.10;;;;;;;;;;4895026;29;20040;-86
2024/01/11 22:33:50;;;;;;;0.20;0.10;;;;;;;;;;4892406;29;20139;-87
2024/01/11 22:36:19;;;;;;;0.20;0.10;;;;;;;;;;4893468;29;20049;-87
2024/01/11 22:38:50;;;;;;;0.20;0.10;;;;;;;;;;4879816;29;20052;-89
2024/01/11 22:41:37;;;;;;;1.27;0.68;;;;;;;;;;4892608;29;20051;-85
2024/01/11 22:44:12;;;;;;;0.20;0.10;;;;;;;;;;4894947;29;20039;-86
2024/01/11 22:46:44;;;;;;;0.20;0.10;;;;;;;;;;4878471;29;20586;-86
2024/01/11 22:49:15;;;;;;;0.20;0.10;;;;;;;;;;4895447;29;20119;-86
2024/01/11 22:51:59;;;;;;;0.20;0.17;;;;;;;;;;4895384;29;20056;-86
2024/01/11 22:54:30;;;;;;;0.30;0.30;;;;;;;;;;4886983;29;20087;-86
2024/01/11 22:57:09;;;;;;;0.20;0.10;;;;;;;;;;4878054;29;20102;-88
2024/01/11 22:59:46;;;;;;;0.25;0.20;;;;;;;;;;4894264;29;20539;-88
2024/01/11 23:02:20;;;;;;;0.30;0.22;;;;;;;;;;4897243;29;20509;-86
2024/01/11 23:05:13;;;;;;;0.30;0.30;;;;;;;;;;4910120;29;20040;-87
2024/01/11 23:07:58;;;;;;;0.20;0.13;;;;;;;;;;4893151;29;20055;-86
2024/01/11 23:10:41;;;;;;;0.20;0.10;;;;;;;;;;4879242;29;20040;-86
2024/01/11 23:13:38;;;;;;;0.20;0.10;;;;;;;;;;4909434;29;20075;-86
2024/01/11 23:16:08;;;;;;;0.20;0.10;;;;;;;;;;4895053;29;20071;-87
2024/01/11 23:21:48;;;;;;;2.53;1.27;;;;;;;;;;4885277;29;20544;-87
2024/01/11 23:24:22;;;;;;;0.20;0.10;;;;;;;;;;4895156;29;21022;-87
2024/01/11 23:26:57;;;;;;;0.63;0.40;;;;;;;;;;4879399;29;20129;-89
2024/01/11 23:30:09;;;;;;;;;;;;;;;;;;;;;
2024/01/11 23:32:46;;;;;;;0.20;0.05;;;;;;;;;;4894495;29;20052;-87
2024/01/11 23:35:59;;;;;;;0.20;0.10;;;;;;;;;;4880735;29;20139;-86
2024/01/11 23:38:38;;;;;;;1.95;1.33;;;;;;;;;;4912674;29;20040;-86
2024/01/11 23:41:13;;;;;;;0.22;0.22;;;;;;;;;;4894416;29;20044;-86
2024/01/11 23:43:50;;;;;;;0.20;0.10;;;;;;;;;;4876670;29;20146;-86
2024/01/11 23:46:46;;;;;;;0.20;0.08;;;;;;;;;;4896675;29;20040;-86
2024/01/11 23:49:12;;;;;;;0.20;0.20;;;;;;;;;;4880334;29;20078;-85
2024/01/11 23:51:56;;;;;;;0.20;0.20;;;;;;;;;;4879981;29;20087;-87